createdAt,value
2018-09-12T00:00:59.863Z,8.33
2018-09-12T00:03:27.541Z,7.60
2018-09-12T00:05:55.551Z,6.23
2018-09-12T00:08:23.221Z,7.37
2018-09-12T00:10:50.766Z,6.97
2018-09-12T00:13:18.437Z,6.47
2018-09-12T00:15:46.107Z,9.33
2018-09-12T00:18:13.995Z,8.27
2018-09-12T00:20:41.576Z,8.10
2018-09-12T00:23:09.165Z,8.90
2018-09-12T00:25:36.825Z,8.77
2018-09-12T00:28:04.497Z,7.77
2018-09-12T00:30:32.221Z,7.03
2018-09-12T00:32:59.888Z,8.33
2018-09-12T00:35:27.588Z,6.63
2018-09-12T00:37:55.249Z,7.90
2018-09-12T00:40:22.926Z,6.80
2018-09-12T00:42:50.676Z,6.97
2018-09-12T00:45:18.331Z,11.20
2018-09-12T00:47:46.059Z,9.53
2018-09-12T00:50:13.734Z,6.70
2018-09-12T00:52:41.447Z,8.60
2018-09-12T00:55:09.128Z,9.20
2018-09-12T00:57:36.826Z,7.07
2018-09-12T01:00:04.548Z,6.50
2018-09-12T01:02:32.231Z,7.30
2018-09-12T01:04:59.962Z,6.87
2018-09-12T01:07:27.668Z,7.47
2018-09-12T01:09:55.307Z,5.93
2018-09-12T01:12:22.958Z,6.53
2018-09-12T01:14:50.607Z,7.83
2018-09-12T01:17:18.280Z,6.43
2018-09-12T01:19:45.851Z,8.00
2018-09-12T01:22:13.624Z,6.40
2018-09-12T01:24:41.288Z,7.20
2018-09-12T01:27:09.042Z,7.43
2018-09-12T01:29:36.611Z,7.00
2018-09-12T01:32:04.266Z,6.67
2018-09-12T01:34:31.865Z,5.37
2018-09-12T01:36:59.567Z,6.50
2018-09-12T01:39:27.170Z,7.67
2018-09-12T01:41:54.797Z,11.73
2018-09-12T01:44:22.471Z,8.87
2018-09-12T01:46:50.139Z,9.00
2018-09-12T01:49:19.231Z,13.13
2018-09-12T01:51:48.499Z,12.13
2018-09-12T01:54:17.048Z,9.33
2018-09-12T01:56:44.932Z,9.17
2018-09-12T01:59:13.086Z,6.53
2018-09-12T02:01:41.217Z,8.00
2018-09-12T02:04:08.769Z,7.43
2018-09-12T02:06:36.482Z,7.30
2018-09-12T02:09:07.374Z,9.90
2018-09-12T02:11:35.069Z,7.17
2018-09-12T02:14:02.805Z,7.30
2018-09-12T02:16:30.500Z,6.40
2018-09-12T02:18:58.173Z,6.97
2018-09-12T02:21:25.826Z,9.03
2018-09-12T02:23:53.519Z,8.23
2018-09-12T02:26:21.261Z,5.97
2018-09-12T02:28:49.032Z,6.70
2018-09-12T02:31:16.758Z,9.07
2018-09-12T02:33:44.478Z,6.60
2018-09-12T02:36:17.589Z,6.03
2018-09-12T02:38:45.296Z,6.67
2018-09-12T02:41:12.933Z,5.83
2018-09-12T02:43:40.677Z,7.87
2018-09-12T02:46:08.354Z,8.17
2018-09-12T02:48:36.079Z,8.10
2018-09-12T02:51:03.627Z,7.80
2018-09-12T02:53:31.304Z,8.70
2018-09-12T02:55:58.970Z,7.47
2018-09-12T02:58:26.661Z,8.57
2018-09-12T03:00:54.324Z,9.90
2018-09-12T03:03:21.967Z,9.30
2018-09-12T03:05:49.598Z,7.00
2018-09-12T03:08:17.363Z,6.57
2018-09-12T03:10:44.888Z,8.03
2018-09-12T03:13:12.608Z,6.80
2018-09-12T03:15:40.255Z,6.47
2018-09-12T03:18:08.016Z,7.57
2018-09-12T03:20:35.691Z,6.00
2018-09-12T03:23:03.347Z,6.10
2018-09-12T03:25:30.987Z,7.57
2018-09-12T03:27:58.503Z,7.20
2018-09-12T03:30:26.230Z,8.00
2018-09-12T03:32:53.753Z,8.87
2018-09-12T03:35:21.465Z,6.13
2018-09-12T03:37:49.108Z,7.40
2018-09-12T03:40:16.865Z,7.20
2018-09-12T03:42:44.389Z,8.77
2018-09-12T03:45:12.109Z,7.70
2018-09-12T03:47:39.764Z,10.57
2018-09-12T03:50:07.498Z,6.43
2018-09-12T03:52:35.144Z,7.73
2018-09-12T03:55:02.910Z,6.23
2018-09-12T03:57:30.574Z,8.33
2018-09-12T03:59:58.247Z,6.60
2018-09-12T04:02:25.915Z,6.83
2018-09-12T04:04:53.664Z,6.33
2018-09-12T04:07:21.345Z,5.57
2018-09-12T04:09:49.019Z,7.83
2018-09-12T04:12:16.670Z,8.97
2018-09-12T04:14:44.419Z,7.93
2018-09-12T04:17:12.048Z,7.13
2018-09-12T04:19:39.693Z,6.33
2018-09-12T04:22:07.341Z,8.70
2018-09-12T04:24:34.975Z,7.40
2018-09-12T04:27:02.691Z,10.97
2018-09-12T04:29:30.325Z,6.90
2018-09-12T04:31:58.004Z,6.20
2018-09-12T04:34:25.629Z,8.20
2018-09-12T04:36:53.328Z,6.73
2018-09-12T04:39:20.858Z,9.70
2018-09-12T04:41:48.569Z,8.57
2018-09-12T04:44:16.241Z,7.53
2018-09-12T04:46:44.019Z,8.13
2018-09-12T04:49:11.744Z,8.83
2018-09-12T04:51:39.289Z,7.87
2018-09-12T04:54:07.185Z,7.33
2018-09-12T04:56:34.723Z,8.40
2018-09-12T04:59:02.437Z,8.50
2018-09-12T05:01:30.129Z,8.67
2018-09-12T05:03:57.883Z,12.20
2018-09-12T05:06:25.583Z,7.33
2018-09-12T05:08:53.307Z,10.00
2018-09-12T05:11:20.857Z,8.73
2018-09-12T05:13:48.562Z,8.07
2018-09-12T05:16:16.243Z,12.83
2018-09-12T05:18:43.954Z,8.13
2018-09-12T05:21:11.671Z,7.13
2018-09-12T05:23:39.308Z,8.77
2018-09-12T05:26:07.007Z,7.53
2018-09-12T05:28:34.561Z,6.90
2018-09-12T05:31:02.240Z,8.10
2018-09-12T05:33:29.929Z,7.40
2018-09-12T05:35:57.621Z,8.93
2018-09-12T05:38:25.306Z,9.77
2018-09-12T05:40:53.059Z,6.27
2018-09-12T05:43:20.720Z,8.37
2018-09-12T05:45:48.404Z,7.33
2018-09-12T05:48:15.926Z,5.93
2018-09-12T05:50:43.693Z,7.47
2018-09-12T05:53:11.363Z,9.03
2018-09-12T05:55:39.060Z,8.30
2018-09-12T05:58:06.765Z,7.73
2018-09-12T06:00:34.440Z,8.47
2018-09-12T06:03:02.123Z,8.33
2018-09-12T06:05:29.655Z,7.83
2018-09-12T06:07:57.369Z,7.40
2018-09-12T06:10:25.051Z,9.33
2018-09-12T06:12:52.669Z,12.40
2018-09-12T06:15:20.258Z,9.77
2018-09-12T06:17:47.940Z,7.67
2018-09-12T06:20:15.619Z,8.63
2018-09-12T06:22:43.176Z,7.33
2018-09-12T06:25:10.867Z,9.33
2018-09-12T06:27:38.565Z,9.20
2018-09-12T06:30:07.100Z,8.05
2018-09-12T06:32:34.738Z,9.17
2018-09-12T06:35:02.421Z,9.37
2018-09-12T06:37:30.086Z,8.37
2018-09-12T06:39:57.775Z,8.67
2018-09-12T06:42:25.459Z,9.33
2018-09-12T06:44:53.139Z,8.80
2018-09-12T06:47:20.821Z,8.30
2018-09-12T06:49:49.005Z,8.10
2018-09-12T06:52:18.452Z,8.27
2018-09-12T06:54:46.218Z,8.57
2018-09-12T06:57:14.758Z,8.17
2018-09-12T06:59:42.545Z,9.17
2018-09-12T07:02:10.192Z,7.43
2018-09-12T07:04:37.893Z,7.73
2018-09-12T07:07:05.725Z,8.23
2018-09-12T07:09:33.380Z,8.70
2018-09-12T07:12:01.073Z,10.38
2018-09-12T07:14:28.776Z,9.97
2018-09-12T07:16:57.196Z,11.43
2018-09-12T07:19:24.867Z,9.63
2018-09-12T07:21:52.659Z,8.17
2018-09-12T07:24:20.377Z,7.93
2018-09-12T07:26:48.076Z,5.67
2018-09-12T07:29:15.780Z,6.50
2018-09-12T07:31:43.370Z,6.73
2018-09-12T07:34:11.071Z,8.43
2018-09-12T07:36:38.975Z,5.93
2018-09-12T07:39:07.650Z,5.47
2018-09-12T07:41:35.453Z,7.40
2018-09-12T07:44:03.175Z,6.00
2018-09-12T07:46:30.855Z,8.07
2018-09-12T07:48:58.556Z,6.93
2018-09-12T07:51:26.085Z,6.23
2018-09-12T07:53:53.804Z,5.03
2018-09-12T07:56:21.514Z,6.43
2018-09-12T07:58:49.210Z,5.33
2018-09-12T08:01:16.882Z,5.40
2018-09-12T08:03:44.488Z,6.23
2018-09-12T08:06:12.175Z,4.17
2018-09-12T08:08:39.867Z,4.83
2018-09-12T08:11:07.545Z,5.13
2018-09-12T08:13:35.255Z,5.10
2018-09-12T08:16:02.936Z,5.97
2018-09-12T08:18:31.419Z,4.43
2018-09-12T08:20:59.157Z,4.40
2018-09-12T08:23:26.825Z,5.00
2018-09-12T08:25:54.520Z,5.50
2018-09-12T08:28:22.136Z,6.17
2018-09-12T08:30:50.118Z,4.07
2018-09-12T08:33:17.825Z,4.83
2018-09-12T08:35:45.515Z,6.63
2018-09-12T08:38:13.195Z,5.23
2018-09-12T08:40:40.970Z,3.70
2018-09-12T08:43:08.677Z,4.20
2018-09-12T08:45:36.540Z,4.53
2018-09-12T08:48:04.515Z,4.47
2018-09-12T08:50:32.258Z,3.13
2018-09-12T08:53:00.120Z,3.40
2018-09-12T08:55:27.880Z,5.10
2018-09-12T08:57:55.649Z,3.13
2018-09-12T09:00:28.123Z,4.10
2018-09-12T09:02:55.825Z,4.33
2018-09-12T09:05:23.617Z,5.70
2018-09-12T09:07:51.467Z,5.47
2018-09-12T09:10:19.116Z,4.87
2018-09-12T09:12:46.827Z,4.30
2018-09-12T09:15:14.518Z,4.30
2018-09-12T09:17:42.195Z,3.80
2018-09-12T09:20:09.944Z,7.93
2018-09-12T09:22:37.671Z,6.00
2018-09-12T09:25:05.423Z,5.17
2018-09-12T09:27:33.110Z,5.10
2018-09-12T09:30:00.782Z,3.90
2018-09-12T09:32:28.501Z,5.87
2018-09-12T09:34:56.254Z,6.70
2018-09-12T09:37:23.912Z,5.83
2018-09-12T09:39:51.610Z,5.67
2018-09-12T09:42:19.256Z,4.33
2018-09-12T09:44:46.810Z,6.53
2018-09-12T09:47:14.547Z,3.50
2018-09-12T09:49:42.241Z,3.83
2018-09-12T09:52:09.945Z,4.17
2018-09-12T09:54:37.726Z,5.67
2018-09-12T09:57:05.370Z,4.15
2018-09-12T09:59:33.561Z,3.70
2018-09-12T10:02:06.682Z,5.35
2018-09-12T10:04:39.972Z,5.80
2018-09-12T10:07:13.105Z,4.20
2018-09-12T10:09:40.926Z,3.30
2018-09-12T10:12:08.581Z,6.10
2018-09-12T10:14:36.120Z,4.17
2018-09-12T10:17:03.873Z,2.85
2018-09-12T10:19:31.539Z,5.20
2018-09-12T10:21:59.191Z,3.08
2018-09-12T10:24:26.921Z,2.90
2018-09-12T10:26:54.516Z,2.85
2018-09-12T10:29:22.199Z,2.83
2018-09-12T10:31:49.916Z,4.40
2018-09-12T10:34:17.566Z,4.40
2018-09-12T10:36:45.148Z,3.47
2018-09-12T10:39:13.616Z,4.62
2018-09-12T10:41:42.019Z,4.70
2018-09-12T10:44:09.715Z,4.05
2018-09-12T10:46:37.676Z,4.33
2018-09-12T10:49:05.796Z,4.83
2018-09-12T10:51:33.567Z,4.20
2018-09-12T10:54:01.272Z,2.65
2018-09-12T10:56:28.945Z,6.15
2018-09-12T10:58:56.683Z,5.00
2018-09-12T11:01:24.330Z,6.37
2018-09-12T11:03:52.017Z,3.47
2018-09-12T11:06:19.937Z,2.95
2018-09-12T11:08:47.615Z,5.15
2018-09-12T11:11:15.291Z,2.55
2018-09-12T11:13:42.997Z,3.17
2018-09-12T11:16:10.670Z,4.33
2018-09-12T11:18:38.353Z,3.42
2018-09-12T11:21:06.076Z,2.50
2018-09-12T11:23:33.694Z,2.87
2018-09-12T11:26:01.348Z,3.50
2018-09-12T11:28:29.110Z,3.77
2018-09-12T11:30:56.775Z,2.95
2018-09-12T11:33:24.325Z,3.22
2018-09-12T11:35:51.996Z,2.52
2018-09-12T11:38:19.698Z,3.83
2018-09-12T11:40:47.342Z,3.10
2018-09-12T11:43:15.020Z,2.75
2018-09-12T11:45:43.243Z,2.77
2018-09-12T11:48:10.925Z,4.90
2018-09-12T11:50:38.665Z,3.55
2018-09-12T11:53:06.236Z,5.45
2018-09-12T11:55:34.017Z,4.28
2018-09-12T11:58:01.705Z,4.70
2018-09-12T12:00:29.305Z,2.90
2018-09-12T12:02:56.983Z,3.25
2018-09-12T12:05:24.815Z,4.08
2018-09-12T12:07:52.475Z,4.45
2018-09-12T12:10:20.231Z,4.10
2018-09-12T12:12:47.917Z,4.05
2018-09-12T12:15:15.631Z,3.00
2018-09-12T12:17:43.170Z,4.50
2018-09-12T12:20:10.901Z,2.65
2018-09-12T12:22:38.632Z,3.60
2018-09-12T12:25:06.512Z,4.80
2018-09-12T12:27:34.251Z,3.35
2018-09-12T12:30:01.953Z,3.70
2018-09-12T12:32:29.656Z,3.87
2018-09-12T12:34:57.201Z,3.58
2018-09-12T12:37:24.918Z,3.27
2018-09-12T12:39:52.561Z,4.67
2018-09-12T12:42:20.262Z,3.05
2018-09-12T12:44:48.016Z,3.83
2018-09-12T12:47:15.602Z,4.40
2018-09-12T12:49:43.343Z,3.20
2018-09-12T12:52:10.990Z,4.65
2018-09-12T12:54:39.061Z,3.17
2018-09-12T12:57:06.786Z,4.75
2018-09-12T12:59:34.545Z,4.40
2018-09-12T13:02:02.220Z,5.08
2018-09-12T13:04:29.901Z,3.67
2018-09-12T13:06:57.491Z,3.47
2018-09-12T13:09:25.188Z,2.90
2018-09-12T13:11:52.884Z,3.37
2018-09-12T13:14:20.579Z,5.90
2018-09-12T13:16:48.269Z,3.70
2018-09-12T13:19:16.438Z,4.30
2018-09-12T13:21:44.194Z,3.87
2018-09-12T13:24:11.848Z,3.33
2018-09-12T13:26:39.531Z,3.92
2018-09-12T13:29:07.339Z,3.15
2018-09-12T13:31:34.888Z,6.22
2018-09-12T13:34:02.577Z,4.28
2018-09-12T13:36:30.337Z,4.37
2018-09-12T13:38:58.187Z,4.15
2018-09-12T13:41:25.896Z,3.35
2018-09-12T13:43:53.631Z,3.72
2018-09-12T13:46:21.367Z,4.80
2018-09-12T13:48:49.021Z,2.80
2018-09-12T13:51:16.765Z,3.52
2018-09-12T13:53:44.429Z,4.62
2018-09-12T13:56:12.222Z,3.22
2018-09-12T13:58:39.882Z,5.62
2018-09-12T14:01:07.572Z,2.80
2018-09-12T14:03:35.238Z,3.22
2018-09-12T14:06:02.824Z,4.85
2018-09-12T14:08:30.501Z,3.65
2018-09-12T14:10:58.245Z,3.75
2018-09-12T14:13:25.938Z,3.17
2018-09-12T14:15:53.583Z,3.58
2018-09-12T14:18:21.267Z,3.87
2018-09-12T14:20:48.974Z,2.62
2018-09-12T14:23:16.631Z,3.87
2018-09-12T14:25:44.273Z,2.87
2018-09-12T14:28:11.946Z,3.00
2018-09-12T14:30:39.723Z,3.67
2018-09-12T14:33:07.483Z,3.35
2018-09-12T14:35:35.132Z,3.00
2018-09-12T14:38:02.860Z,3.77
2018-09-12T14:40:30.512Z,4.03
2018-09-12T14:42:58.338Z,3.20
2018-09-12T14:45:26.036Z,5.20
2018-09-12T14:47:53.747Z,4.65
2018-09-12T14:50:21.388Z,4.25
2018-09-12T14:52:49.209Z,3.00
2018-09-12T14:55:16.903Z,3.65
2018-09-12T14:57:44.577Z,4.72
2018-09-12T15:00:16.800Z,2.67
2018-09-12T15:02:44.712Z,3.40
2018-09-12T15:05:12.408Z,3.70
2018-09-12T15:07:40.056Z,4.10
2018-09-12T15:10:07.662Z,3.75
2018-09-12T15:12:35.361Z,2.45
2018-09-12T15:15:03.137Z,3.47
2018-09-12T15:17:30.827Z,2.83
2018-09-12T15:19:58.513Z,2.83
2018-09-12T15:22:26.222Z,4.12
2018-09-12T15:24:53.933Z,5.95
2018-09-12T15:27:21.531Z,5.58
2018-09-12T15:29:49.086Z,3.30
2018-09-12T15:32:16.751Z,3.90
2018-09-12T15:34:44.451Z,2.85
2018-09-12T15:37:12.248Z,2.95
2018-09-12T15:39:39.936Z,3.98
2018-09-12T15:42:07.593Z,3.42
2018-09-12T15:44:35.378Z,5.65
2018-09-12T15:47:03.071Z,3.12
2018-09-12T15:49:30.640Z,3.72
2018-09-12T15:51:58.311Z,3.80
2018-09-12T15:54:26.077Z,3.00
2018-09-12T15:56:53.779Z,5.28
2018-09-12T15:59:21.461Z,2.75
2018-09-12T16:01:49.164Z,3.40
2018-09-12T16:04:16.923Z,4.35
2018-09-12T16:06:44.599Z,5.42
2018-09-12T16:09:12.290Z,3.20
2018-09-12T16:11:39.947Z,6.70
2018-09-12T16:14:07.637Z,3.15
2018-09-12T16:16:35.310Z,4.35
2018-09-12T16:19:03.036Z,4.47
2018-09-12T16:21:30.725Z,5.17
2018-09-12T16:23:58.463Z,3.25
2018-09-12T16:26:26.152Z,3.42
2018-09-12T16:28:53.736Z,3.77
2018-09-12T16:31:21.531Z,3.50
2018-09-12T16:33:49.243Z,3.12
2018-09-12T16:36:16.946Z,2.90
2018-09-12T16:38:44.680Z,4.95
2018-09-12T16:41:12.393Z,4.08
2018-09-12T16:43:40.048Z,4.28
2018-09-12T16:46:08.069Z,3.50
2018-09-12T16:48:35.661Z,4.30
2018-09-12T16:51:03.387Z,5.33
2018-09-12T16:53:30.948Z,5.03
2018-09-12T16:55:58.647Z,5.87
2018-09-12T16:58:26.314Z,3.87
2018-09-12T17:00:53.859Z,5.57
2018-09-12T17:03:21.562Z,3.20
2018-09-12T17:05:49.272Z,5.10
2018-09-12T17:08:16.957Z,4.50
2018-09-12T17:10:44.652Z,4.37
2018-09-12T17:13:12.348Z,5.57
2018-09-12T17:15:40.019Z,5.63
2018-09-12T17:18:07.743Z,3.70
2018-09-12T17:20:35.288Z,6.87
2018-09-12T17:23:02.971Z,4.23
2018-09-12T17:25:30.513Z,3.70
2018-09-12T17:27:58.201Z,3.23
2018-09-12T17:30:25.896Z,3.60
2018-09-12T17:32:53.469Z,5.57
2018-09-12T17:37:45.430Z,3.53
2018-09-12T17:40:13.029Z,4.00
2018-09-12T17:42:40.809Z,3.80
2018-09-12T17:45:08.664Z,4.43
2018-09-12T17:47:36.652Z,5.90
2018-09-12T17:50:04.518Z,4.33
2018-09-12T17:52:32.384Z,4.77
2018-09-12T17:55:00.164Z,3.70
2018-09-12T17:57:27.874Z,3.77
2018-09-12T17:59:55.584Z,4.27
2018-09-12T18:02:23.323Z,5.40
2018-09-12T18:04:51.010Z,8.33
2018-09-12T18:07:18.930Z,5.70
2018-09-12T18:09:46.609Z,5.03
2018-09-12T18:12:14.449Z,4.87
2018-09-12T18:14:42.199Z,5.83
2018-09-12T18:17:09.933Z,5.30
2018-09-12T18:19:37.660Z,4.17
2018-09-12T18:22:05.431Z,7.17
2018-09-12T18:24:33.364Z,4.57
2018-09-12T18:27:00.989Z,5.20
2018-09-12T18:29:28.754Z,5.57
2018-09-12T18:31:56.514Z,4.57
2018-09-12T18:34:24.308Z,4.00
2018-09-12T18:36:52.043Z,7.07
2018-09-12T18:39:19.746Z,8.13
2018-09-12T18:41:47.451Z,7.17
2018-09-12T18:44:15.189Z,7.90
2018-09-12T18:46:42.908Z,7.03
2018-09-12T18:49:10.632Z,5.40
2018-09-12T18:51:38.373Z,7.07
2018-09-12T18:54:06.282Z,5.77
2018-09-12T18:56:33.955Z,6.80
2018-09-12T18:59:01.676Z,5.37
2018-09-12T19:01:29.363Z,7.20
2018-09-12T19:03:57.144Z,4.93
2018-09-12T19:06:24.744Z,5.40
2018-09-12T19:08:52.524Z,6.30
2018-09-12T19:11:20.286Z,7.20
2018-09-12T19:13:48.000Z,6.17
2018-09-12T19:16:15.686Z,6.83
2018-09-12T19:18:43.675Z,9.27
2018-09-12T19:21:11.692Z,5.77
2018-09-12T19:23:39.386Z,7.40
2018-09-12T19:26:07.426Z,4.87
2018-09-12T19:28:34.993Z,6.17
2018-09-12T19:31:02.690Z,5.43
2018-09-12T19:33:30.429Z,5.80
2018-09-12T19:35:58.133Z,7.03
2018-09-12T19:38:25.697Z,4.87
2018-09-12T19:40:53.386Z,6.33
2018-09-12T19:43:21.194Z,4.23
2018-09-12T19:45:48.899Z,6.33
2018-09-12T19:48:16.560Z,5.43
2018-09-12T19:50:44.273Z,4.10
2018-09-12T19:53:11.987Z,4.77
2018-09-12T19:55:39.680Z,7.73
2018-09-12T19:58:07.464Z,4.80
2018-09-12T20:00:35.128Z,5.87
2018-09-12T20:03:02.813Z,4.90
2018-09-12T20:05:30.450Z,4.53
2018-09-12T20:07:58.145Z,6.40
2018-09-12T20:10:25.903Z,5.53
2018-09-12T20:12:53.599Z,5.90
2018-09-12T20:15:21.424Z,7.40
2018-09-12T20:17:49.274Z,5.80
2018-09-12T20:20:17.018Z,5.23
2018-09-12T20:22:44.879Z,6.87
2018-09-12T20:25:12.569Z,7.03
2018-09-12T20:27:40.240Z,6.90
2018-09-12T20:30:08.080Z,6.87
2018-09-12T20:32:35.841Z,7.50
2018-09-12T20:35:03.511Z,6.73
2018-09-12T20:37:31.465Z,7.17
2018-09-12T20:39:59.128Z,9.27
2018-09-12T20:42:26.848Z,9.50
2018-09-12T20:44:54.556Z,7.40
2018-09-12T20:47:22.484Z,13.00
2018-09-12T20:49:50.215Z,10.27
2018-09-12T20:52:18.148Z,11.67
2018-09-12T20:54:46.053Z,11.97
2018-09-12T20:57:14.469Z,11.77
2018-09-12T20:59:42.142Z,10.20
2018-09-12T21:02:09.701Z,12.33
2018-09-12T21:04:37.714Z,12.83
2018-09-12T21:07:05.664Z,9.83
2018-09-12T21:09:33.620Z,10.80
2018-09-12T21:12:01.460Z,9.63
2018-09-12T21:14:29.393Z,11.07
2018-09-12T21:16:57.116Z,8.60
2018-09-12T21:19:25.272Z,8.87
2018-09-12T21:21:53.269Z,7.63
2018-09-12T21:24:21.374Z,6.93
2018-09-12T21:26:49.060Z,8.30
2018-09-12T21:29:17.018Z,7.90
2018-09-12T21:31:44.838Z,7.97
2018-09-12T21:34:12.530Z,7.40
2018-09-12T21:36:40.322Z,6.50
2018-09-12T21:39:09.040Z,9.40
2018-09-12T21:41:36.913Z,8.10
2018-09-12T21:44:05.015Z,7.87
2018-09-12T21:46:33.220Z,7.03
2018-09-12T21:49:01.298Z,9.77
2018-09-12T21:51:29.100Z,11.00
2018-09-12T21:53:56.961Z,9.23
2018-09-12T21:56:24.824Z,8.83
2018-09-12T21:58:52.532Z,8.20
2018-09-12T22:01:23.670Z,10.93
2018-09-12T22:03:51.718Z,10.40
2018-09-12T22:06:19.738Z,9.13
2018-09-12T22:08:47.724Z,12.53
2018-09-12T22:11:15.435Z,9.97
2018-09-12T22:13:43.099Z,6.57
2018-09-12T22:16:10.817Z,8.00
2018-09-12T22:18:38.524Z,9.80
2018-09-12T22:21:06.234Z,6.43
2018-09-12T22:23:33.925Z,10.20
2018-09-12T22:26:01.570Z,10.37
2018-09-12T22:28:29.342Z,11.33
2018-09-12T22:30:56.913Z,8.50
2018-09-12T22:33:24.639Z,10.50
2018-09-12T22:35:52.290Z,10.90
2018-09-12T22:38:20.044Z,9.90
2018-09-12T22:40:47.685Z,10.57
2018-09-12T22:43:15.361Z,8.33
2018-09-12T22:45:43.005Z,7.53
2018-09-12T22:48:10.672Z,9.27
2018-09-12T22:50:38.350Z,7.70
2018-09-12T22:53:06.029Z,8.50
2018-09-12T22:55:33.730Z,7.93
2018-09-12T22:58:01.398Z,8.50
2018-09-12T23:00:28.995Z,6.70
2018-09-12T23:02:56.699Z,9.63
2018-09-12T23:05:24.445Z,7.60
2018-09-12T23:07:52.123Z,8.17
2018-09-12T23:10:19.810Z,6.93
2018-09-12T23:12:47.540Z,7.90
2018-09-12T23:15:15.246Z,8.37
2018-09-12T23:17:42.907Z,8.23
2018-09-12T23:20:10.600Z,7.53
2018-09-12T23:22:38.308Z,8.43
2018-09-12T23:25:06.021Z,11.03
2018-09-12T23:27:33.720Z,9.07
2018-09-12T23:30:01.429Z,9.70
2018-09-12T23:32:28.976Z,7.83
2018-09-12T23:34:56.696Z,10.17
2018-09-12T23:37:24.364Z,8.07
2018-09-12T23:39:52.076Z,8.43
2018-09-12T23:42:19.779Z,8.50
2018-09-12T23:44:47.539Z,9.43
2018-09-12T23:47:15.263Z,9.93
2018-09-12T23:49:42.916Z,8.47
2018-09-12T23:52:10.624Z,7.40
2018-09-12T23:54:38.354Z,7.27
2018-09-12T23:57:06.043Z,8.60
2018-09-12T23:59:33.684Z,8.23
